TimeEDT,TemperatureF,Dew PointF,Humidity,Sea Level PressureIn,VisibilityMPH,Wind Direction,Wind SpeedMPH,Gust SpeedMPH,PrecipitationIn,Events,Conditions,WindDirDegrees,DateUTC
12:15 AM,56.3,51.3,83,29.74,10.0,ENE,9.2,-,N/A,,Overcast,70,2012-10-02 04:15:00
12:35 AM,56.5,50.9,82,29.74,10.0,ENE,10.4,-,N/A,,Overcast,70,2012-10-02 04:35:00
12:55 AM,56.7,50.9,81,29.74,10.0,NE,8.1,-,N/A,,Overcast,50,2012-10-02 04:55:00
1:15 AM,56.7,51.1,82,29.73,10.0,NE,9.2,-,N/A,,Overcast,50,2012-10-02 05:15:00
1:35 AM,56.5,51.1,82,29.73,10.0,NE,8.1,-,N/A,,Overcast,50,2012-10-02 05:35:00
1:55 AM,56.5,51.1,82,29.73,10.0,ENE,6.9,-,N/A,,Overcast,60,2012-10-02 05:55:00
2:15 AM,56.5,51.3,83,29.73,10.0,NE,6.9,-,N/A,,Mostly Cloudy,50,2012-10-02 06:15:00
2:35 AM,56.7,51.3,82,29.73,10.0,ENE,6.9,-,N/A,Rain,Light Rain,60,2012-10-02 06:35:00
2:55 AM,57.0,51.6,82,29.72,10.0,ENE,6.9,-,N/A,,Overcast,60,2012-10-02 06:55:00
3:15 AM,57.0,51.8,83,29.71,10.0,ENE,6.9,-,N/A,,Overcast,70,2012-10-02 07:15:00
3:35 AM,57.2,51.8,82,29.72,10.0,ENE,5.8,-,N/A,,Overcast,60,2012-10-02 07:35:00
3:55 AM,57.2,52.2,83,29.72,10.0,NNE,5.8,-,N/A,Rain,Light Rain,30,2012-10-02 07:55:00
4:15 AM,57.6,52.7,84,29.73,7.0,NE,5.8,-,N/A,,Overcast,50,2012-10-02 08:15:00
4:35 AM,57.6,52.9,84,29.72,7.0,NE,5.8,-,N/A,,Overcast,40,2012-10-02 08:35:00
4:55 AM,57.7,53.1,84,29.72,7.0,ENE,6.9,-,N/A,,Overcast,60,2012-10-02 08:55:00
5:15 AM,58.1,53.1,83,29.73,10.0,ENE,5.8,-,N/A,,Overcast,60,2012-10-02 09:15:00
5:35 AM,58.1,53.2,84,29.73,10.0,ENE,6.9,-,N/A,,Overcast,70,2012-10-02 09:35:00
5:55 AM,58.3,53.6,84,29.73,10.0,ENE,6.9,-,N/A,,Overcast,60,2012-10-02 09:55:00
6:15 AM,58.5,53.6,84,29.73,10.0,NE,6.9,-,N/A,,Overcast,50,2012-10-02 10:15:00
6:35 AM,58.6,53.8,84,29.74,10.0,ENE,6.9,-,N/A,,Overcast,60,2012-10-02 10:35:00
6:55 AM,58.5,53.8,84,29.75,7.0,ENE,6.9,-,N/A,,Overcast,60,2012-10-02 10:55:00
7:15 AM,58.8,54.1,84,29.75,7.0,NE,5.8,-,N/A,,Overcast,50,2012-10-02 11:15:00
7:35 AM,59.2,54.5,84,29.76,7.0,NE,5.8,-,N/A,,Overcast,50,2012-10-02 11:35:00
7:55 AM,59.4,54.7,84,29.77,7.0,ENE,5.8,-,N/A,,Overcast,60,2012-10-02 11:55:00
8:15 AM,59.9,55.0,84,29.77,7.0,ENE,6.9,-,N/A,,Overcast,70,2012-10-02 12:15:00
8:35 AM,60.1,55.4,85,29.77,7.0,ENE,6.9,-,N/A,,Overcast,70,2012-10-02 12:35:00
8:55 AM,60.6,55.8,84,29.78,7.0,ENE,6.9,-,N/A,,Overcast,70,2012-10-02 12:55:00
9:15 AM,61.0,56.1,84,29.78,5.0,ENE,8.1,-,N/A,,Haze,60,2012-10-02 13:15:00
9:35 AM,61.5,56.7,84,29.78,5.0,ENE,6.9,-,N/A,,Haze,70,2012-10-02 13:35:00
9:55 AM,62.2,57.2,84,29.79,7.0,East,5.8,-,N/A,,Overcast,80,2012-10-02 13:55:00
10:15 AM,63.9,58.1,81,29.78,10.0,ENE,5.8,-,N/A,,Overcast,60,2012-10-02 14:15:00
10:35 AM,64.9,58.8,81,29.78,10.0,ENE,4.6,-,N/A,,Overcast,60,2012-10-02 14:35:00
10:55 AM,66.6,59.2,77,29.78,10.0,NE,4.6,-,N/A,,Overcast,50,2012-10-02 14:55:00
11:15 AM,68.4,59.5,73,29.78,10.0,East,4.6,-,N/A,,Mostly Cloudy,100,2012-10-02 15:15:00
11:35 AM,70.0,60.3,71,29.78,10.0,SE,5.8,-,N/A,,Overcast,130,2012-10-02 15:35:00
11:55 AM,70.9,60.8,70,29.78,10.0,ESE,4.6,-,N/A,,Mostly Cloudy,120,2012-10-02 15:55:00
12:15 PM,71.8,60.8,68,29.78,10.0,SE,4.6,-,N/A,,Mostly Cloudy,130,2012-10-02 16:15:00
12:35 PM,72.1,61.0,68,29.78,10.0,ESE,3.5,-,N/A,,Mostly Cloudy,120,2012-10-02 16:35:00
12:55 PM,72.9,61.3,67,29.77,10.0,East,5.8,-,N/A,,Overcast,90,2012-10-02 16:55:00
1:15 PM,75.0,61.5,63,29.76,10.0,NE,3.5,-,N/A,,Mostly Cloudy,50,2012-10-02 17:15:00
1:35 PM,75.7,61.5,61,29.76,10.0,Calm,Calm,-,N/A,,Mostly Cloudy,0,2012-10-02 17:35:00
1:55 PM,76.8,61.3,59,29.76,10.0,Calm,Calm,-,N/A,,Scattered Clouds,0,2012-10-02 17:55:00
2:15 PM,78.8,61.5,55,29.75,10.0,East,5.8,-,N/A,,Mostly Cloudy,80,2012-10-02 18:15:00
2:35 PM,78.3,61.3,56,29.75,10.0,ENE,5.8,-,N/A,,Overcast,70,2012-10-02 18:35:00
2:55 PM,78.4,61.5,56,29.74,10.0,East,3.5,-,N/A,,Overcast,100,2012-10-02 18:55:00
3:15 PM,79.2,61.3,54,29.73,10.0,ENE,4.6,-,N/A,,Mostly Cloudy,60,2012-10-02 19:15:00
3:35 PM,80.1,61.9,54,29.73,10.0,ENE,6.9,-,N/A,,Mostly Cloudy,60,2012-10-02 19:35:00
3:55 PM,79.5,61.5,54,29.73,10.0,ENE,5.8,-,N/A,,Mostly Cloudy,70,2012-10-02 19:55:00
4:15 PM,80.2,61.7,53,29.74,10.0,ENE,6.9,-,N/A,,Overcast,60,2012-10-02 20:15:00
4:35 PM,81.1,62.1,52,29.73,10.0,ESE,6.9,-,N/A,,Scattered Clouds,110,2012-10-02 20:35:00
4:55 PM,80.4,62.2,54,29.74,10.0,East,10.4,-,N/A,,Scattered Clouds,90,2012-10-02 20:55:00
5:15 PM,80.1,62.1,54,29.74,10.0,East,5.8,-,N/A,,Scattered Clouds,80,2012-10-02 21:15:00
5:35 PM,81.0,62.1,52,29.74,10.0,East,6.9,-,N/A,,Mostly Cloudy,80,2012-10-02 21:35:00
5:55 PM,80.8,62.1,53,29.75,10.0,East,5.8,-,N/A,,Overcast,90,2012-10-02 21:55:00
6:15 PM,79.7,62.2,55,29.75,10.0,SE,3.5,-,N/A,,Overcast,130,2012-10-02 22:15:00
6:35 PM,78.1,63.0,60,29.77,4.0,South,12.7,-,N/A,Rain,Heavy Rain,170,2012-10-02 22:35:00
6:55 PM,73.8,65.8,76,29.78,10.0,WSW,4.6,-,N/A,,Overcast,240,2012-10-02 22:55:00
7:15 PM,72.5,64.2,75,29.79,10.0,NW,11.5,-,N/A,,Mostly Cloudy,310,2012-10-02 23:15:00
7:35 PM,70.5,63.7,79,29.80,10.0,NW,8.1,-,N/A,,Scattered Clouds,310,2012-10-02 23:35:00
8:15 PM,68.9,62.2,79,29.83,7.0,West,8.1,-,N/A,,Scattered Clouds,280,2012-10-03 00:15:00
8:35 PM,67.8,61.5,80,29.84,7.0,WNW,5.8,-,N/A,,Scattered Clouds,300,2012-10-03 00:35:00
8:55 PM,67.1,61.0,81,29.85,5.0,NW,4.6,-,N/A,,Haze,320,2012-10-03 00:55:00
9:15 PM,66.4,60.8,82,29.86,5.0,NW,3.5,-,N/A,,Haze,320,2012-10-03 01:15:00
9:35 PM,66.0,60.4,82,29.86,5.0,NNW,3.5,-,N/A,,Haze,330,2012-10-03 01:35:00
9:55 PM,65.3,60.1,83,29.86,4.0,Calm,Calm,-,N/A,,Haze,0,2012-10-03 01:55:00
10:15 PM,64.9,60.1,84,29.87,5.0,West,3.5,-,N/A,,Haze,280,2012-10-03 02:15:00
10:35 PM,64.8,59.9,84,29.87,4.0,Calm,Calm,-,N/A,,Haze,0,2012-10-03 02:35:00
10:55 PM,64.0,59.5,85,29.88,2.0,Calm,Calm,-,N/A,,Mostly Cloudy,0,2012-10-03 02:55:00
11:15 PM,63.7,59.5,86,29.88,2.0,Calm,Calm,-,N/A,,Mostly Cloudy,0,2012-10-03 03:15:00
11:35 PM,63.1,59.4,87,29.90,1.5,SSW,3.5,-,N/A,,Haze,210,2012-10-03 03:35:00
11:55 PM,62.4,58.5,87,29.90,1.5,SSW,3.5,-,N/A,,Overcast,210,2012-10-03 03:55:00